createdAt,value
2018-06-17T00:00:20.642Z,4.37
2018-06-17T00:02:51.162Z,4.27
2018-06-17T00:05:21.743Z,5.10
2018-06-17T00:07:52.370Z,3.97
2018-06-17T00:10:22.896Z,3.60
2018-06-17T00:12:53.566Z,5.07
2018-06-17T00:15:24.153Z,3.40
2018-06-17T00:17:54.931Z,5.10
2018-06-17T00:20:25.702Z,4.30
2018-06-17T00:22:56.004Z,5.07
2018-06-17T00:25:26.578Z,4.40
2018-06-17T00:28:01.968Z,3.80
2018-06-17T00:30:32.527Z,5.33
2018-06-17T00:33:03.229Z,3.77
2018-06-17T00:35:40.737Z,3.93
2018-06-17T00:38:11.603Z,4.10
2018-06-17T00:40:42.253Z,4.87
2018-06-17T00:43:13.268Z,3.37
2018-06-17T00:45:44.704Z,3.63
2018-06-17T00:48:16.254Z,4.10
2018-06-17T00:50:46.982Z,3.83
2018-06-17T00:53:17.844Z,4.63
2018-06-17T00:55:48.648Z,4.83
2018-06-17T00:58:19.551Z,3.57
2018-06-17T01:00:50.121Z,4.40
2018-06-17T01:03:20.726Z,3.50
2018-06-17T01:05:51.445Z,3.27
2018-06-17T01:08:22.373Z,3.93
2018-06-17T01:10:53.210Z,3.67
2018-06-17T01:13:24.028Z,3.73
2018-06-17T01:15:54.599Z,4.23
2018-06-17T01:18:25.196Z,4.30
2018-06-17T01:20:56.175Z,4.43
2018-06-17T01:23:26.918Z,3.67
2018-06-17T01:26:01.049Z,3.77
2018-06-17T01:28:31.810Z,3.60
2018-06-17T01:31:02.206Z,3.60
2018-06-17T01:33:32.872Z,3.33
2018-06-17T01:36:03.672Z,3.93
2018-06-17T01:38:34.237Z,3.80
2018-06-17T01:41:04.881Z,3.20
2018-06-17T01:43:35.036Z,3.33
2018-06-17T01:46:05.793Z,3.57
2018-06-17T01:48:36.472Z,2.77
2018-06-17T01:51:07.309Z,3.20
2018-06-17T01:53:37.825Z,2.93
2018-06-17T01:56:08.124Z,2.50
2018-06-17T01:58:38.579Z,2.40
2018-06-17T02:01:09.362Z,3.40
2018-06-17T02:03:45.065Z,3.07
2018-06-17T02:06:21.211Z,3.20
2018-06-17T02:08:57.020Z,3.20
2018-06-17T02:11:32.801Z,3.97
2018-06-17T02:14:08.639Z,3.17
2018-06-17T02:16:39.353Z,3.20
2018-06-17T02:19:12.854Z,2.70
2018-06-17T02:21:43.391Z,2.70
2018-06-17T02:24:14.092Z,3.63
2018-06-17T02:26:44.529Z,2.50
2018-06-17T02:29:15.744Z,3.67
2018-06-17T02:31:46.240Z,3.47
2018-06-17T02:34:16.888Z,2.40
2018-06-17T02:36:47.453Z,2.73
2018-06-17T02:39:18.109Z,3.00
2018-06-17T02:41:48.782Z,3.00
2018-06-17T02:44:19.436Z,3.10
2018-06-17T02:46:55.429Z,2.97
2018-06-17T02:49:31.385Z,3.73
2018-06-17T02:52:07.467Z,3.27
2018-06-17T02:54:43.280Z,2.97
2018-06-17T02:57:15.090Z,3.00
2018-06-17T02:59:46.060Z,2.47
2018-06-17T03:02:17.187Z,3.13
2018-06-17T03:04:47.657Z,2.80
2018-06-17T03:07:18.349Z,3.50
2018-06-17T03:09:49.068Z,2.77
2018-06-17T03:12:19.655Z,3.43
2018-06-17T03:14:50.136Z,3.87
2018-06-17T03:17:20.693Z,3.23
2018-06-17T03:19:51.356Z,3.47
2018-06-17T03:22:21.975Z,2.90
2018-06-17T03:24:57.840Z,3.00
2018-06-17T03:27:33.195Z,3.20
2018-06-17T03:30:08.749Z,3.47
2018-06-17T03:32:44.320Z,2.63
2018-06-17T03:35:20.113Z,2.70
2018-06-17T03:37:50.708Z,3.33
2018-06-17T03:40:21.384Z,2.80
2018-06-17T03:42:52.437Z,2.90
2018-06-17T03:45:22.902Z,3.00
2018-06-17T03:47:53.540Z,2.90
2018-06-17T03:50:24.239Z,2.93
2018-06-17T03:52:54.953Z,3.33
2018-06-17T03:55:25.560Z,2.50
2018-06-17T03:57:56.393Z,3.00
2018-06-17T04:00:26.868Z,3.47
2018-06-17T04:02:57.405Z,3.30
2018-06-17T04:05:27.920Z,2.50
2018-06-17T04:08:00.117Z,2.70
2018-06-17T04:10:30.670Z,2.70
2018-06-17T04:13:01.206Z,2.87
2018-06-17T04:15:31.847Z,3.07
2018-06-17T04:18:02.413Z,2.53
2018-06-17T04:20:32.884Z,3.20
2018-06-17T04:23:03.798Z,2.33
2018-06-17T04:25:35.248Z,2.20
2018-06-17T04:28:05.918Z,2.47
2018-06-17T04:30:36.644Z,2.63
2018-06-17T04:33:07.222Z,2.50
2018-06-17T04:35:37.960Z,2.50
2018-06-17T04:38:09.357Z,2.07
2018-06-17T04:40:40.269Z,2.43
2018-06-17T04:43:11.338Z,2.70
2018-06-17T04:45:42.120Z,2.33
2018-06-17T04:48:12.601Z,2.47
2018-06-17T04:50:42.911Z,2.23
2018-06-17T04:53:13.376Z,2.50
2018-06-17T04:55:44.076Z,2.13
2018-06-17T04:58:14.758Z,3.07
2018-06-17T05:00:45.409Z,2.90
2018-06-17T05:03:22.950Z,2.47
2018-06-17T05:05:53.605Z,2.47
2018-06-17T05:08:24.239Z,2.50
2018-06-17T05:10:54.951Z,2.37
2018-06-17T05:13:25.527Z,3.23
2018-06-17T05:15:55.991Z,2.63
2018-06-17T05:18:26.644Z,3.10
2018-06-17T05:20:57.176Z,2.80
2018-06-17T05:23:27.821Z,2.57
2018-06-17T05:25:57.934Z,2.33
2018-06-17T05:28:28.571Z,2.30
2018-06-17T05:30:59.134Z,2.10
2018-06-17T05:33:29.918Z,2.20
2018-06-17T05:36:00.467Z,1.80
2018-06-17T05:38:30.761Z,1.80
2018-06-17T05:41:01.425Z,2.00
2018-06-17T05:43:32.001Z,1.83
2018-06-17T05:46:02.587Z,1.60
2018-06-17T05:48:33.231Z,1.47
2018-06-17T05:51:04.349Z,1.50
2018-06-17T05:53:34.592Z,2.27
2018-06-17T05:56:05.181Z,1.37
2018-06-17T05:58:35.774Z,1.53
2018-06-17T06:01:06.373Z,1.43
2018-06-17T06:03:37.106Z,1.23
2018-06-17T06:06:07.736Z,1.40
2018-06-17T06:08:38.013Z,1.40
2018-06-17T06:11:08.873Z,1.33
2018-06-17T06:13:39.332Z,1.47
2018-06-17T06:16:10.111Z,1.30
2018-06-17T06:18:40.757Z,1.43
2018-06-17T06:21:11.483Z,1.73
2018-06-17T06:23:42.152Z,1.60
2018-06-17T06:26:13.629Z,1.50
2018-06-17T06:28:44.235Z,1.63
2018-06-17T06:31:14.883Z,1.60
2018-06-17T06:33:45.521Z,1.80
2018-06-17T06:36:16.283Z,1.73
2018-06-17T06:38:47.088Z,2.00
2018-06-17T06:41:17.697Z,1.77
2018-06-17T06:43:49.019Z,1.80
2018-06-17T06:46:19.824Z,2.30
2018-06-17T06:48:50.615Z,1.50
2018-06-17T06:51:21.083Z,2.07
2018-06-17T06:53:51.802Z,2.07
2018-06-17T06:56:22.265Z,2.30
2018-06-17T06:58:52.953Z,2.30
2018-06-17T07:01:34.523Z,1.97
2018-06-17T07:04:21.561Z,1.63
2018-06-17T07:07:02.991Z,1.73
2018-06-17T07:10:50.105Z,1.57
2018-06-17T07:13:20.764Z,1.57
2018-06-17T07:16:08.056Z,1.50
2018-06-17T07:18:41.439Z,2.03
2018-06-17T07:21:11.850Z,1.40
2018-06-17T07:23:42.597Z,2.10
2018-06-17T07:26:39.976Z,2.27
2018-06-17T07:29:30.042Z,1.60
2018-06-17T07:32:00.449Z,1.57
2018-06-17T07:34:30.584Z,1.40
2018-06-17T07:37:01.068Z,1.30
2018-06-17T07:40:18.974Z,1.60
2018-06-17T07:42:49.976Z,1.40
2018-06-17T07:45:20.342Z,1.60
2018-06-17T07:47:50.541Z,1.50
2018-06-17T07:50:37.542Z,1.43
2018-06-17T07:53:18.382Z,1.63
2018-06-17T07:55:48.950Z,1.23
2018-06-17T07:58:20.297Z,1.20
2018-06-17T08:00:50.728Z,1.63
2018-06-17T08:03:21.742Z,1.73
2018-06-17T08:05:52.009Z,1.37
2018-06-17T08:08:22.421Z,1.50
2018-06-17T08:10:52.717Z,1.20
2018-06-17T08:13:22.956Z,1.13
2018-06-17T08:15:53.382Z,1.60
2018-06-17T08:18:23.663Z,1.70
2018-06-17T08:20:54.057Z,1.80
2018-06-17T08:23:24.420Z,1.40
2018-06-17T08:25:54.888Z,1.83
2018-06-17T08:28:25.329Z,1.73
2018-06-17T08:30:55.547Z,2.00
2018-06-17T08:33:32.472Z,1.67
2018-06-17T08:36:02.991Z,1.70
2018-06-17T08:38:33.163Z,1.53
2018-06-17T08:41:03.595Z,1.80
2018-06-17T08:43:33.809Z,1.80
2018-06-17T08:46:04.240Z,1.97
2018-06-17T08:48:34.457Z,1.50
2018-06-17T08:51:05.073Z,1.50
2018-06-17T08:53:35.538Z,2.00
2018-06-17T08:56:05.961Z,2.07
2018-06-17T08:58:36.597Z,1.83
2018-06-17T09:01:07.441Z,1.40
2018-06-17T09:03:42.047Z,1.20
2018-06-17T09:06:12.374Z,1.40
2018-06-17T09:08:45.861Z,1.97
2018-06-17T09:11:16.274Z,1.20
2018-06-17T09:13:46.276Z,1.73
2018-06-17T09:16:16.589Z,1.27
2018-06-17T09:18:47.071Z,1.70
2018-06-17T09:21:17.798Z,1.30
2018-06-17T09:23:47.785Z,1.47
2018-06-17T09:26:18.129Z,1.40
2018-06-17T09:28:48.395Z,1.60
2018-06-17T09:31:18.823Z,1.50
2018-06-17T09:33:49.015Z,1.87
2018-06-17T09:36:27.311Z,1.67
2018-06-17T09:38:57.733Z,1.60
2018-06-17T09:41:34.509Z,1.63
2018-06-17T09:44:04.914Z,1.40
2018-06-17T09:46:35.451Z,1.10
2018-06-17T09:49:06.039Z,2.27
2018-06-17T09:51:36.457Z,1.43
2018-06-17T09:54:06.897Z,1.20
2018-06-17T09:56:37.169Z,1.30
2018-06-17T09:59:07.478Z,1.13
2018-06-17T10:01:37.934Z,1.00
2018-06-17T10:04:08.171Z,0.90
2018-06-17T10:06:38.464Z,1.30
2018-06-17T10:09:10.120Z,1.10
2018-06-17T10:11:40.429Z,1.10
2018-06-17T10:14:11.049Z,1.10
2018-06-17T10:16:41.661Z,1.80
2018-06-17T10:19:12.697Z,1.10
2018-06-17T10:21:43.400Z,1.50
2018-06-17T10:24:14.248Z,1.40
2018-06-17T10:26:44.734Z,1.20
2018-06-17T10:29:15.389Z,1.07
2018-06-17T10:31:45.945Z,1.30
2018-06-17T10:34:16.481Z,1.30
2018-06-17T10:36:47.181Z,1.30
2018-06-17T10:39:17.779Z,2.13
2018-06-17T10:41:48.599Z,1.20
2018-06-17T10:44:19.344Z,1.30
2018-06-17T10:46:49.833Z,1.23
2018-06-17T10:49:20.362Z,1.13
2018-06-17T10:51:50.905Z,1.00
2018-06-17T10:54:21.486Z,1.50
2018-06-17T10:56:52.107Z,1.30
2018-06-17T10:59:22.848Z,1.87
2018-06-17T11:01:53.220Z,1.30
2018-06-17T11:04:23.810Z,1.27
2018-06-17T11:06:54.539Z,2.17
2018-06-17T11:09:25.409Z,1.30
2018-06-17T11:11:56.129Z,1.40
2018-06-17T11:14:26.659Z,2.90
2018-06-17T11:16:57.373Z,1.87
2018-06-17T11:19:28.005Z,1.83
2018-06-17T11:21:58.279Z,1.57
2018-06-17T11:24:28.659Z,1.70
2018-06-17T11:26:59.268Z,1.07
2018-06-17T11:29:29.852Z,1.30
2018-06-17T11:32:00.618Z,2.30
2018-06-17T11:34:31.180Z,3.13
2018-06-17T11:37:01.841Z,1.50
2018-06-17T11:39:32.581Z,9.70
2018-06-17T11:42:03.358Z,3.77
2018-06-17T11:44:34.066Z,5.03
2018-06-17T11:47:04.739Z,2.13
2018-06-17T11:49:35.574Z,3.00
2018-06-17T11:52:06.346Z,1.70
2018-06-17T11:54:36.920Z,1.40
2018-06-17T11:57:08.136Z,1.70
2018-06-17T11:59:38.993Z,1.40
2018-06-17T12:02:09.591Z,1.20
2018-06-17T12:04:40.397Z,1.30
2018-06-17T12:07:11.064Z,1.47
2018-06-17T12:09:41.712Z,1.53
2018-06-17T12:12:12.643Z,1.63
2018-06-17T12:14:43.510Z,1.03
2018-06-17T12:17:14.246Z,2.93
2018-06-17T12:19:45.147Z,2.20
2018-06-17T12:22:16.177Z,1.53
2018-06-17T12:24:46.943Z,2.00
2018-06-17T12:27:17.559Z,1.80
2018-06-17T12:29:48.233Z,1.77
2018-06-17T12:32:18.853Z,1.73
2018-06-17T12:34:49.531Z,1.53
2018-06-17T12:37:20.231Z,1.73
2018-06-17T12:39:50.949Z,1.90
2018-06-17T12:42:22.179Z,1.83
2018-06-17T12:44:52.900Z,1.50
2018-06-17T12:47:23.727Z,1.40
2018-06-17T12:49:54.367Z,1.40
2018-06-17T12:52:25.058Z,1.70
2018-06-17T12:54:55.950Z,1.40
2018-06-17T12:57:26.765Z,1.93
2018-06-17T12:59:57.565Z,1.67
2018-06-17T13:02:28.683Z,1.63
2018-06-17T13:04:59.572Z,1.77
2018-06-17T13:07:30.614Z,2.30
2018-06-17T13:10:01.326Z,2.20
2018-06-17T13:12:32.207Z,1.07
2018-06-17T13:15:03.225Z,1.30
2018-06-17T13:17:34.457Z,1.90
2018-06-17T13:20:05.193Z,1.70
2018-06-17T13:22:37.295Z,1.63
2018-06-17T13:25:08.090Z,1.20
2018-06-17T13:27:39.575Z,2.00
2018-06-17T13:30:10.298Z,1.87
2018-06-17T13:32:41.305Z,1.87
2018-06-17T13:35:18.489Z,1.80
2018-06-17T13:37:49.473Z,1.70
2018-06-17T13:40:20.652Z,1.77
2018-06-17T13:42:51.602Z,2.00
2018-06-17T13:45:22.425Z,2.10
2018-06-17T13:47:53.232Z,1.80
2018-06-17T13:50:24.139Z,1.97
2018-06-17T13:52:56.814Z,2.33
2018-06-17T13:55:27.643Z,2.27
2018-06-17T13:57:58.445Z,3.13
2018-06-17T14:00:29.516Z,3.00
2018-06-17T14:03:00.204Z,1.70
2018-06-17T14:05:30.980Z,1.83
2018-06-17T14:08:01.649Z,2.20
2018-06-17T14:10:33.237Z,2.40
2018-06-17T14:13:04.117Z,2.70
2018-06-17T14:15:35.066Z,1.90
2018-06-17T14:18:06.492Z,1.93
2018-06-17T14:20:37.154Z,1.80
2018-06-17T14:23:08.026Z,2.33
2018-06-17T14:25:38.619Z,2.30
2018-06-17T14:28:09.401Z,3.37
2018-06-17T14:30:40.147Z,2.00
2018-06-17T14:33:10.880Z,3.37
2018-06-17T14:35:44.541Z,2.73
2018-06-17T14:38:15.346Z,1.97
2018-06-17T14:41:22.898Z,1.67
2018-06-17T14:43:59.069Z,2.40
2018-06-17T14:47:36.503Z,1.67
2018-06-17T14:50:12.586Z,2.10
2018-06-17T14:52:48.238Z,1.90
2018-06-17T14:55:18.957Z,1.80
2018-06-17T14:57:49.593Z,2.07
2018-06-17T15:00:20.513Z,1.20
2018-06-17T15:02:51.782Z,1.93
2018-06-17T15:05:22.050Z,1.50
2018-06-17T15:07:52.621Z,1.50
2018-06-17T15:10:23.363Z,1.70
2018-06-17T15:12:53.959Z,1.33
2018-06-17T15:15:24.891Z,1.73
2018-06-17T15:17:55.475Z,1.40
2018-06-17T15:20:25.897Z,1.90
2018-06-17T15:22:56.509Z,2.23
2018-06-17T15:25:27.279Z,1.67
2018-06-17T15:27:57.776Z,1.40
2018-06-17T15:30:28.371Z,1.20
2018-06-17T15:33:04.288Z,1.80
2018-06-17T15:36:43.055Z,2.23
2018-06-17T15:39:19.108Z,2.13
2018-06-17T15:41:49.851Z,1.67
2018-06-17T15:44:22.115Z,1.70
2018-06-17T15:46:52.970Z,2.10
2018-06-17T15:49:24.229Z,1.73
2018-06-17T15:51:54.958Z,1.77
2018-06-17T15:54:25.577Z,1.60
2018-06-17T15:56:56.457Z,2.00
2018-06-17T15:59:27.228Z,1.30
2018-06-17T16:01:57.901Z,1.57
2018-06-17T16:04:28.988Z,1.60
2018-06-17T16:06:59.733Z,1.57
2018-06-17T16:09:30.377Z,1.40
2018-06-17T16:12:06.164Z,1.90
2018-06-17T16:14:41.960Z,1.50
2018-06-17T16:17:18.102Z,1.20
2018-06-17T16:19:53.804Z,1.73
2018-06-17T16:22:24.657Z,1.47
2018-06-17T16:24:55.162Z,1.20
2018-06-17T16:27:25.789Z,1.10
2018-06-17T16:29:56.605Z,1.47
2018-06-17T16:32:27.252Z,1.50
2018-06-17T16:34:57.912Z,1.40
2018-06-17T16:37:28.544Z,1.47
2018-06-17T16:39:59.729Z,3.67
2018-06-17T16:42:30.394Z,1.50
2018-06-17T16:45:01.017Z,1.60
2018-06-17T16:47:31.593Z,1.20
2018-06-17T16:50:02.936Z,1.47
2018-06-17T16:52:39.030Z,1.10
2018-06-17T16:55:15.054Z,1.53
2018-06-17T16:57:50.850Z,1.30
2018-06-17T17:00:22.100Z,1.20
2018-06-17T17:02:52.805Z,1.97
2018-06-17T17:05:23.405Z,1.40
2018-06-17T17:07:54.152Z,1.70
2018-06-17T17:10:24.805Z,1.50
2018-06-17T17:12:55.359Z,1.53
2018-06-17T17:15:26.133Z,1.50
2018-06-17T17:18:03.243Z,1.00
2018-06-17T17:20:33.966Z,1.50
2018-06-17T17:23:04.762Z,1.33
2018-06-17T17:25:35.336Z,1.50
2018-06-17T17:28:06.043Z,1.33
2018-06-17T17:30:36.808Z,1.60
2018-06-17T17:33:12.590Z,1.30
2018-06-17T17:35:48.310Z,1.67
2018-06-17T17:38:24.273Z,1.63
2018-06-17T17:40:57.521Z,1.63
2018-06-17T17:43:28.605Z,1.73
2018-06-17T17:46:05.782Z,1.33
2018-06-17T17:48:36.362Z,0.93
2018-06-17T17:51:07.114Z,1.70
2018-06-17T17:53:38.107Z,1.33
2018-06-17T17:56:09.003Z,1.70
2018-06-17T17:58:39.574Z,1.60
2018-06-17T18:01:10.348Z,1.60
2018-06-17T18:03:40.988Z,1.60
2018-06-17T18:06:11.604Z,1.10
2018-06-17T18:08:42.484Z,1.60
2018-06-17T18:11:13.256Z,1.30
2018-06-17T18:13:43.782Z,2.20
2018-06-17T18:16:14.520Z,1.17
2018-06-17T18:18:45.177Z,2.33
2018-06-17T18:21:15.805Z,1.83
2018-06-17T18:23:46.612Z,1.97
2018-06-17T18:26:22.305Z,1.90
2018-06-17T18:28:58.257Z,2.90
2018-06-17T18:31:31.093Z,1.83
2018-06-17T18:34:13.521Z,1.50
2018-06-17T18:36:44.180Z,1.87
2018-06-17T18:39:14.704Z,1.40
2018-06-17T18:41:45.241Z,1.20
2018-06-17T18:44:15.876Z,1.70
2018-06-17T18:46:46.608Z,2.40
2018-06-17T18:49:17.307Z,1.23
2018-06-17T18:51:47.968Z,1.67
2018-06-17T18:54:18.695Z,1.80
2018-06-17T18:56:49.484Z,2.50
2018-06-17T18:59:20.539Z,1.50
2018-06-17T19:01:51.467Z,1.83
2018-06-17T19:04:22.554Z,1.40
2018-06-17T19:06:53.345Z,1.60
2018-06-17T19:09:29.324Z,1.80
2018-06-17T19:12:05.268Z,2.80
2018-06-17T19:14:40.858Z,1.80
2018-06-17T19:17:23.200Z,2.17
2018-06-17T19:19:53.842Z,2.03
2018-06-17T19:22:24.847Z,2.23
2018-06-17T19:24:55.614Z,2.80
2018-06-17T19:27:26.290Z,2.33
2018-06-17T19:29:57.144Z,2.53
2018-06-17T19:32:28.459Z,1.87
2018-06-17T19:34:59.125Z,2.10
2018-06-17T19:37:30.193Z,2.07
2018-06-17T19:40:01.062Z,2.70
2018-06-17T19:42:31.745Z,2.30
2018-06-17T19:45:02.279Z,2.43
2018-06-17T19:47:32.821Z,2.60
2018-06-17T19:50:08.599Z,2.33
2018-06-17T19:52:45.205Z,2.63
2018-06-17T19:55:21.893Z,2.40
2018-06-17T19:57:57.657Z,2.67
2018-06-17T20:00:32.129Z,3.17
2018-06-17T20:03:03.856Z,2.70
2018-06-17T20:05:34.769Z,3.70
2018-06-17T20:08:05.608Z,2.40
2018-06-17T20:10:36.330Z,2.70
2018-06-17T20:13:06.975Z,4.20
2018-06-17T20:15:37.600Z,2.90
2018-06-17T20:18:08.368Z,3.03
2018-06-17T20:20:39.157Z,3.13
2018-06-17T20:23:10.037Z,2.60
2018-06-17T20:25:41.034Z,2.23
2018-06-17T20:28:12.212Z,2.20
2018-06-17T20:30:42.921Z,2.40
2018-06-17T20:33:19.079Z,2.13
2018-06-17T20:35:55.017Z,2.37
2018-06-17T20:38:31.361Z,2.40
2018-06-17T20:44:38.401Z,2.30
2018-06-17T20:47:09.060Z,2.70
2018-06-17T20:49:39.992Z,2.10
2018-06-17T20:52:10.585Z,2.80
2018-06-17T20:54:41.158Z,2.30
2018-06-17T20:57:11.717Z,2.30
2018-06-17T20:59:42.546Z,2.60
2018-06-17T21:02:13.073Z,2.90
2018-06-17T21:04:43.889Z,2.20
2018-06-17T21:07:14.783Z,2.43
2018-06-17T21:09:45.414Z,2.37
2018-06-17T21:12:16.089Z,2.70
2018-06-17T21:14:46.899Z,3.60
2018-06-17T21:17:17.505Z,2.37
2018-06-17T21:19:53.488Z,2.40
2018-06-17T21:22:29.241Z,2.90
2018-06-17T21:25:05.098Z,2.20
2018-06-17T21:27:41.001Z,1.83
2018-06-17T21:30:12.413Z,2.67
2018-06-17T21:32:42.847Z,2.30
2018-06-17T21:35:13.309Z,2.97
2018-06-17T21:37:43.662Z,3.10
2018-06-17T21:40:15.044Z,2.40
2018-06-17T21:42:45.921Z,2.97
2018-06-17T21:45:16.598Z,2.50
2018-06-17T21:47:47.319Z,2.33
2018-06-17T21:50:18.024Z,1.90
2018-06-17T21:52:48.647Z,2.87
2018-06-17T21:55:19.397Z,2.70
2018-06-17T21:57:50.279Z,2.50
2018-06-17T22:00:21.335Z,2.40
2018-06-17T22:02:51.932Z,2.63
2018-06-17T22:05:22.687Z,2.10
2018-06-17T22:07:58.402Z,2.80
2018-06-17T22:10:34.382Z,3.80
2018-06-17T22:13:05.036Z,3.33
2018-06-17T22:15:40.828Z,3.30
2018-06-17T22:18:12.160Z,3.30
2018-06-17T22:20:42.773Z,2.70
2018-06-17T22:23:13.487Z,3.77
2018-06-17T22:25:44.175Z,3.17
2018-06-17T22:28:14.756Z,2.57
2018-06-17T22:30:45.309Z,2.60
2018-06-17T22:33:16.262Z,2.77
2018-06-17T22:35:46.970Z,2.97
2018-06-17T22:38:17.793Z,2.63
2018-06-17T22:40:48.348Z,2.80
2018-06-17T22:43:19.005Z,2.07
2018-06-17T22:45:49.726Z,2.50
2018-06-17T22:48:20.194Z,2.23
2018-06-17T22:50:51.177Z,2.50
2018-06-17T22:54:40.332Z,3.23
2018-06-17T22:57:16.206Z,2.90
2018-06-17T22:59:51.957Z,2.40
2018-06-17T23:02:27.674Z,2.67
2018-06-17T23:05:03.356Z,2.30
2018-06-17T23:07:39.099Z,2.83
2018-06-17T23:10:14.241Z,3.30
2018-06-17T23:12:44.866Z,2.67
2018-06-17T23:15:15.507Z,3.07
2018-06-17T23:17:46.757Z,2.77
2018-06-17T23:20:17.390Z,2.20
2018-06-17T23:22:48.211Z,2.70
2018-06-17T23:25:18.822Z,2.77
2018-06-17T23:27:49.287Z,2.10
2018-06-17T23:30:20.124Z,2.50
2018-06-17T23:32:50.736Z,2.73
2018-06-17T23:35:21.909Z,3.00
2018-06-17T23:37:52.424Z,2.30
2018-06-17T23:40:22.934Z,2.70
2018-06-17T23:42:53.767Z,2.40
2018-06-17T23:45:24.550Z,2.70
2018-06-17T23:48:04.906Z,2.77
2018-06-17T23:50:40.602Z,2.90
2018-06-17T23:53:17.210Z,2.80
2018-06-17T23:56:09.076Z,2.57
2018-06-17T23:58:40.448Z,2.50
